»·PEaware :: DFGCW 65S-7S0

DFGCW :: 65S-7S0

FLIGHT INFORMATION

Flight Status: Arrived
Operator: Unknown
More flights by this operator :: More flights under this callsign
Pilot: Klaus A. (15485)
Aircraft: PILATUS PC-12 EAGLE
(PC12)
More flights by this aircraft type
Origin: 65S Boundary Co
United States
Destination: 7S0 Ronan
United States
More flights between these airports :: More routes between these airports
Route: +KARPS V120 MLP V120 HANIM
File this flight plan on PilotEdge
Remarks: / L Custom weather
Altitude:
(Current/Filed)
20,000ft
Speed:
(Current/Filed)
240kts
Departed: 24-Nov-18 08:45 AM
Arrived: 24-Nov-18 09:38 AM
Distance/Time
Traveled:
112nm/0:53
Distance/Time
To Go:
Arrived

Flight Plot

Page will automatically refresh every two minutes.

Flight plan parsing failed; only flown route is shown


Map Options




Map Legend


Flown Route
Filed Route
Departure Airport
Arrival Airport
Navaid (VOR, NDB)
Fix

Horizontal Profiles

Position Reports

Time Latitude Longitude Heading Altitude Ground
Speed
24-Nov-18 08:36 48.727865 -116.297375 88 2338ft 0kts
24-Nov-18 08:37 48.727865 -116.297375 88 2338ft 0kts
24-Nov-18 08:38 48.727865 -116.297375 88 2338ft 0kts
24-Nov-18 08:39 48.727865 -116.297375 88 2338ft 0kts
24-Nov-18 08:40 48.727865 -116.297375 88 2338ft 0kts
24-Nov-18 08:41 48.727860 -116.297345 115 2338ft 0kts
24-Nov-18 08:42 48.727051 -116.295168 38 2339ft 11kts
24-Nov-18 08:43 48.729717 -116.291978 39 2338ft 17kts
24-Nov-18 08:44 48.730539 -116.290607 129 2339ft 0kts
24-Nov-18 08:45 48.730539 -116.290607 129 2339ft 0kts
24-Nov-18 08:46 48.730533 -116.290596 127 2339ft 0kts
24-Nov-18 08:47 48.730034 -116.290290 217 2339ft 0kts
24-Nov-18 08:48 48.712982 -116.311647 225 3104ft 136kts
24-Nov-18 08:49 48.682356 -116.346365 199 5263ft 145kts
24-Nov-18 08:50 48.644087 -116.364436 198 7383ft 150kts
24-Nov-18 08:51 48.604007 -116.382273 199 9349ft 155kts
24-Nov-18 08:52 48.562594 -116.400863 199 11151ft 159kts
24-Nov-18 08:53 48.521019 -116.424563 205 12959ft 163kts
24-Nov-18 08:54 48.478420 -116.449720 206 14830ft 168kts
24-Nov-18 08:55 48.434519 -116.475585 207 16530ft 173kts
24-Nov-18 08:56 48.389303 -116.502171 207 18080ft 177kts
24-Nov-18 08:57 48.343129 -116.529262 207 19510ft 180kts
24-Nov-18 08:58 48.292780 -116.558835 206 20058ft 223kts
24-Nov-18 08:59 48.226938 -116.588548 196 20049ft 265kts
24-Nov-18 09:00 48.153378 -116.613638 196 20044ft 275kts
24-Nov-18 09:01 48.078575 -116.639008 196 20047ft 277kts
24-Nov-18 09:02 48.004953 -116.663928 195 20058ft 278kts
24-Nov-18 09:03 47.929535 -116.689376 196 20054ft 279kts
24-Nov-18 09:04 47.855015 -116.714448 195 20051ft 279kts
24-Nov-18 09:05 47.779600 -116.739762 195 20058ft 278kts
24-Nov-18 09:06 47.703385 -116.761059 194 20052ft 281kts
24-Nov-18 09:07 47.635884 -116.727956 104 20064ft 285kts
24-Nov-18 09:08 47.633441 -116.614813 102 20064ft 283kts
24-Nov-18 09:09 47.613271 -116.502018 101 20064ft 283kts
24-Nov-18 09:10 47.593187 -116.389832 101 20063ft 283kts
24-Nov-18 09:11 47.573381 -116.279779 102 20061ft 283kts
24-Nov-18 09:12 47.553100 -116.167836 103 19936ft 285kts
24-Nov-18 09:13 47.532597 -116.055442 103 19936ft 283kts
24-Nov-18 09:14 47.512122 -115.943765 103 19935ft 282kts
24-Nov-18 09:15 47.491567 -115.832361 103 19936ft 282kts
24-Nov-18 09:16 47.470796 -115.720522 103 19933ft 282kts
24-Nov-18 09:17 47.457632 -115.608255 85 19937ft 278kts
24-Nov-18 09:18 47.459368 -115.493503 85 19936ft 278kts
24-Nov-18 09:19 47.461077 -115.379227 85 19937ft 279kts
24-Nov-18 09:20 47.462674 -115.264958 86 18910ft 287kts
24-Nov-18 09:21 47.464205 -115.146824 86 17513ft 285kts
24-Nov-18 09:22 47.465503 -115.038702 86 16103ft 253kts
24-Nov-18 09:23 47.466642 -114.936373 86 14706ft 250kts
24-Nov-18 09:24 47.467693 -114.833900 86 13314ft 250kts
24-Nov-18 09:25 47.468652 -114.731785 86 11919ft 248kts
24-Nov-18 09:26 47.443678 -114.639194 116 10513ft 248kts
24-Nov-18 09:27 47.412745 -114.552789 116 9112ft 233kts
24-Nov-18 09:28 47.383215 -114.470478 116 8040ft 212kts
24-Nov-18 09:29 47.357541 -114.399141 116 8045ft 197kts
24-Nov-18 09:30 47.331963 -114.328263 116 8043ft 202kts
24-Nov-18 09:31 47.306909 -114.258997 116 8039ft 182kts
24-Nov-18 09:32 47.294019 -114.188403 88 7594ft 189kts
24-Nov-18 09:33 47.296647 -114.114931 50 7230ft 158kts
24-Nov-18 09:34 47.335719 -114.101433 0 6287ft 140kts
24-Nov-18 09:35 47.373370 -114.100954 359 5846ft 131kts
24-Nov-18 09:36 47.411682 -114.100949 359 5808ft 142kts
24-Nov-18 09:37 47.448679 -114.100970 359 4826ft 129kts
24-Nov-18 09:38 47.484400 -114.100701 358 3781ft 131kts
24-Nov-18 09:39 47.520517 -114.100935 359 3757ft 128kts
24-Nov-18 09:40 47.553437 -114.101217 1 3281ft 103kts
24-Nov-18 09:41 47.571007 -114.101116 357 3090ft 26kts
24-Nov-18 09:42 47.573146 -114.102072 177 3090ft 0kts
24-Nov-18 09:43 47.572027 -114.102068 180 3090ft 18kts
24-Nov-18 09:44 47.567884 -114.102420 261 3090ft 7kts
24-Nov-18 09:45 47.568081 -114.102681 7 3089ft 0kts
24-Nov-18 09:46 47.568081 -114.102681 7 3089ft 0kts
24-Nov-18 09:47 47.568081 -114.102681 7 3089ft 0kts
24-Nov-18 09:48 47.568081 -114.102681 7 3089ft 0kts
24-Nov-18 09:49 47.568081 -114.102681 7 3089ft 0kts
24-Nov-18 09:50 47.568081 -114.102681 7 3089ft 0kts
24-Nov-18 09:51 47.568081 -114.102681 7 3089ft 0kts
24-Nov-18 09:52 47.568081 -114.102681 7 3089ft 0kts
24-Nov-18 09:53 47.568081 -114.102681 7 3089ft 0kts
24-Nov-18 09:54 47.568081 -114.102681 7 3089ft 0kts

Navigation Log

Ident Type
Flight plan parsing failed, navigation log unavailable